Time;durP1;ratioP1;P1;durP2;ratioP2;P2;SDS_P1;SDS_P2;PMS_P1;PMS_P2;Temp;Humidity;BMP_temperature;BMP_pressure;BME280_temperature;BME280_humidity;BME280_pressure;Samples;Min_cycle;Max_cycle;Signal;HPM_P1;HPM_P2
2021/12/21 00:00:11;;;;;;;19.07;7.03;;;;;;;;;;4183645;28;20235;-71
2021/12/21 00:02:38;;;;;;;23.37;7.97;;;;;;;;;;4179365;28;20233;-72
2021/12/21 00:05:04;;;;;;;25.17;8.50;;;;;;;;;;4187708;28;20236;-70
2021/12/21 00:07:31;;;;;;;20.00;7.60;;;;;;;;;;4191771;28;23443;-70
2021/12/21 00:09:57;;;;;;;21.20;8.20;;;;;;;;;;4209914;28;20332;-71
2021/12/21 00:12:27;;;;;;;23.27;8.33;;;;;;;;;;4190705;28;20302;-71
2021/12/21 00:15:02;;;;;;;22.33;8.40;;;;;;;;;;4180716;28;20236;-72
2021/12/21 00:17:47;;;;;;;24.23;8.77;;;;;;;;;;4180899;28;20276;-71
2021/12/21 00:25:12;;;;;;;23.17;8.10;;;;;;;;;;4193518;28;20241;-71
2021/12/21 00:27:39;;;;;;;20.97;8.30;;;;;;;;;;4196581;28;22254;-70
2021/12/21 00:30:05;;;;;;;22.03;8.07;;;;;;;;;;4174415;28;21310;-72
2021/12/21 00:32:32;;;;;;;20.87;7.50;;;;;;;;;;4192187;28;24144;-70
2021/12/21 00:34:59;;;;;;;19.83;7.77;;;;;;;;;;4177953;28;20241;-71
2021/12/21 00:37:27;;;;;;;19.43;7.60;;;;;;;;;;4207318;28;20228;-72
2021/12/21 00:39:54;;;;;;;21.23;7.33;;;;;;;;;;4175522;28;21103;-70
2021/12/21 00:42:20;;;;;;;19.37;7.70;;;;;;;;;;4200634;28;22161;-70
2021/12/21 00:44:47;;;;;;;21.37;7.97;;;;;;;;;;4197244;28;20317;-70
2021/12/21 00:47:17;;;;;;;20.63;8.17;;;;;;;;;;4194095;28;20943;-71
2021/12/21 00:49:46;;;;;;;20.13;8.23;;;;;;;;;;4195807;28;20241;-70
2021/12/21 00:52:13;;;;;;;19.20;7.50;;;;;;;;;;4171916;28;20402;-71
2021/12/21 00:54:40;;;;;;;19.80;8.17;;;;;;;;;;4177561;28;20326;-72
2021/12/21 00:57:08;;;;;;;20.10;7.37;;;;;;;;;;4193694;28;20230;-70
2021/12/21 00:59:34;;;;;;;21.63;8.27;;;;;;;;;;4193576;28;20242;-69
2021/12/21 01:02:00;;;;;;;21.03;8.77;;;;;;;;;;4168875;28;20254;-69
2021/12/21 01:04:34;;;;;;;22.10;8.50;;;;;;;;;;4183254;28;22118;-71
2021/12/21 01:07:14;;;;;;;22.27;8.23;;;;;;;;;;4184730;28;20275;-75
2021/12/21 01:10:12;;;;;;;18.00;8.03;;;;;;;;;;4178236;28;22976;-70
2021/12/21 01:15:32;;;;;;;24.80;9.17;;;;;;;;;;4206422;28;20711;-69
2021/12/21 01:18:12;;;;;;;20.03;8.13;;;;;;;;;;4181718;28;20319;-71
2021/12/21 01:20:46;;;;;;;24.17;9.03;;;;;;;;;;4191245;28;20328;-68
2021/12/21 01:26:17;;;;;;;20.40;7.67;;;;;;;;;;4176888;28;20229;-70
2021/12/21 01:31:51;;;;;;;17.10;5.40;;;;;;;;;;4166673;28;20402;-69
2021/12/21 01:34:40;;;;;;;17.83;6.33;;;;;;;;;;4174117;28;20291;-72
2021/12/21 01:37:25;;;;;;;19.17;6.23;;;;;;;;;;4190079;28;22098;-69
2021/12/21 01:39:59;;;;;;;12.63;5.87;;;;;;;;;;4187735;28;20311;-69
2021/12/21 01:42:39;;;;;;;12.07;5.40;;;;;;;;;;4219527;28;20309;-70
2021/12/21 01:50:39;;;;;;;10.73;4.97;;;;;;;;;;4193549;28;20241;-71
2021/12/21 01:53:05;;;;;;;16.83;5.80;;;;;;;;;;4211666;28;20442;-71
2021/12/21 01:55:32;;;;;;;13.70;5.80;;;;;;;;;;4192293;28;20239;-69
2021/12/21 01:57:58;;;;;;;13.67;5.30;;;;;;;;;;4190451;28;20241;-71
2021/12/21 02:00:25;;;;;;;13.90;5.73;;;;;;;;;;4184100;28;20656;-70
2021/12/21 02:02:51;;;;;;;14.40;5.50;;;;;;;;;;4190485;28;21342;-69
2021/12/21 02:05:18;;;;;;;16.10;5.67;;;;;;;;;;4187568;28;22945;-70
2021/12/21 02:07:44;;;;;;;13.53;5.53;;;;;;;;;;4194179;28;20355;-69
2021/12/21 02:10:10;;;;;;;20.23;6.23;;;;;;;;;;4184584;28;20685;-70
2021/12/21 02:12:37;;;;;;;16.03;6.27;;;;;;;;;;4201930;28;20232;-68
2021/12/21 02:15:04;;;;;;;13.73;5.30;;;;;;;;;;4189194;28;20456;-70
2021/12/21 02:20:38;;;;;;;13.77;5.67;;;;;;;;;;4185423;28;25316;-68
2021/12/21 02:23:17;;;;;;;17.53;6.20;;;;;;;;;;4191403;28;20229;-68
2021/12/21 02:26:03;;;;;;;18.27;6.53;;;;;;;;;;4181226;28;20318;-70
2021/12/21 02:30:57;;;;;;;18.87;6.70;;;;;;;;;;4187043;28;21744;-69
2021/12/21 02:33:25;;;;;;;18.57;6.83;;;;;;;;;;4200131;28;20339;-69
2021/12/21 02:35:52;;;;;;;18.93;7.20;;;;;;;;;;4186145;28;22338;-68
2021/12/21 02:38:19;;;;;;;18.10;6.57;;;;;;;;;;4185590;28;20228;-71
2021/12/21 02:40:45;;;;;;;16.63;6.03;;;;;;;;;;4220979;28;20259;-69
2021/12/21 02:43:13;;;;;;;19.63;7.03;;;;;;;;;;4201367;28;20316;-68
2021/12/21 02:45:40;;;;;;;22.73;7.03;;;;;;;;;;4197457;28;22589;-71
2021/12/21 02:48:07;;;;;;;17.27;6.80;;;;;;;;;;4212215;28;20237;-67
2021/12/21 02:50:36;;;;;;;17.03;6.20;;;;;;;;;;4260530;28;20245;-69
2021/12/21 02:53:03;;;;;;;14.73;6.50;;;;;;;;;;4296326;28;20268;-68
2021/12/21 02:55:29;;;;;;;17.13;6.50;;;;;;;;;;4210415;28;20316;-69
2021/12/21 02:57:57;;;;;;;17.33;6.23;;;;;;;;;;4209149;28;20323;-68
2021/12/21 03:00:25;;;;;;;19.30;6.40;;;;;;;;;;4213934;28;20315;-70
2021/12/21 03:02:52;;;;;;;14.23;5.20;;;;;;;;;;4203735;28;22061;-70
2021/12/21 03:05:19;;;;;;;14.97;5.70;;;;;;;;;;4208897;28;20244;-70
2021/12/21 03:08:11;;;;;;;17.90;5.40;;;;;;;;;;4213473;28;20252;-69
2021/12/21 03:10:38;;;;;;;14.03;5.57;;;;;;;;;;4198632;28;20237;-68
2021/12/21 03:15:50;;;;;;;15.93;5.70;;;;;;;;;;4197703;28;22326;-68
2021/12/21 03:18:17;;;;;;;10.13;4.13;;;;;;;;;;4200834;28;21113;-70
2021/12/21 03:20:43;;;;;;;11.80;4.47;;;;;;;;;;4205817;28;20268;-68
2021/12/21 03:23:10;;;;;;;11.57;3.67;;;;;;;;;;4214228;28;20240;-66
2021/12/21 03:25:36;;;;;;;9.73;3.80;;;;;;;;;;4225185;28;20334;-68
2021/12/21 03:28:04;;;;;;;7.30;3.27;;;;;;;;;;4216523;28;20246;-70
2021/12/21 03:30:30;;;;;;;8.13;3.40;;;;;;;;;;4215432;28;20244;-67
2021/12/21 03:32:56;;;;;;;9.57;3.43;;;;;;;;;;4230856;28;20237;-68
2021/12/21 03:35:23;;;;;;;7.43;3.03;;;;;;;;;;4214382;28;21823;-70
2021/12/21 03:37:49;;;;;;;11.50;4.23;;;;;;;;;;4210299;28;20302;-68
2021/12/21 03:40:16;;;;;;;8.47;3.13;;;;;;;;;;4204285;28;20239;-67
2021/12/21 03:42:42;;;;;;;8.43;3.10;;;;;;;;;;4223468;28;21777;-67
2021/12/21 03:45:09;;;;;;;8.50;2.97;;;;;;;;;;4196161;28;20233;-69
2021/12/21 03:47:35;;;;;;;9.47;3.00;;;;;;;;;;4217460;28;20249;-69
2021/12/21 03:50:04;;;;;;;7.13;3.00;;;;;;;;;;4196143;28;20244;-68
2021/12/21 03:52:30;;;;;;;5.83;2.57;;;;;;;;;;4220950;28;20247;-68
2021/12/21 03:54:58;;;;;;;9.30;3.03;;;;;;;;;;4209788;28;22981;-69
2021/12/21 03:57:25;;;;;;;7.63;2.53;;;;;;;;;;4201997;28;20230;-67
2021/12/21 03:59:53;;;;;;;10.43;2.90;;;;;;;;;;4199578;28;21801;-67
2021/12/21 04:02:20;;;;;;;6.83;2.63;;;;;;;;;;4207820;28;20241;-69
2021/12/21 04:04:48;;;;;;;5.20;2.50;;;;;;;;;;4229786;28;22560;-70
2021/12/21 04:07:14;;;;;;;5.63;2.53;;;;;;;;;;4225645;28;20254;-68
2021/12/21 04:09:41;;;;;;;5.57;2.40;;;;;;;;;;4209335;28;20292;-70
2021/12/21 04:12:07;;;;;;;5.90;2.80;;;;;;;;;;4198024;28;20233;-69
2021/12/21 04:14:35;;;;;;;6.60;2.97;;;;;;;;;;4202761;28;20231;-68
2021/12/21 04:17:02;;;;;;;5.53;2.80;;;;;;;;;;4197904;28;25397;-68
2021/12/21 04:19:28;;;;;;;6.33;2.80;;;;;;;;;;4196453;28;20240;-69
2021/12/21 04:21:54;;;;;;;9.40;3.53;;;;;;;;;;4217762;28;21465;-69
2021/12/21 04:24:21;;;;;;;7.73;3.00;;;;;;;;;;4194745;28;20237;-69
2021/12/21 04:26:47;;;;;;;10.87;3.80;;;;;;;;;;4201585;28;21259;-68
2021/12/21 04:29:14;;;;;;;7.90;3.07;;;;;;;;;;4196116;28;21298;-68
2021/12/21 04:31:40;;;;;;;8.80;3.10;;;;;;;;;;4209793;28;20237;-68
2021/12/21 04:34:07;;;;;;;8.50;3.27;;;;;;;;;;4207754;28;21639;-70
2021/12/21 04:36:33;;;;;;;8.97;3.33;;;;;;;;;;4207784;28;20484;-69
2021/12/21 04:39:03;;;;;;;8.97;3.70;;;;;;;;;;4211019;28;20232;-67
2021/12/21 04:41:30;;;;;;;8.50;3.40;;;;;;;;;;4211727;28;20391;-69
2021/12/21 04:43:58;;;;;;;7.33;3.27;;;;;;;;;;4224946;28;20736;-71
2021/12/21 04:46:25;;;;;;;9.63;3.07;;;;;;;;;;4207927;28;20290;-67
2021/12/21 04:48:52;;;;;;;7.97;3.20;;;;;;;;;;4208671;28;20488;-68
2021/12/21 04:51:18;;;;;;;10.27;3.67;;;;;;;;;;4207790;28;20246;-68
2021/12/21 04:53:45;;;;;;;7.37;3.47;;;;;;;;;;4223992;28;20283;-69
2021/12/21 04:56:11;;;;;;;5.57;3.30;;;;;;;;;;4197746;28;23511;-69
2021/12/21 04:58:38;;;;;;;5.97;2.70;;;;;;;;;;4214391;28;20354;-68
2021/12/21 05:01:05;;;;;;;7.77;3.13;;;;;;;;;;4203164;28;20241;-69
2021/12/21 05:03:31;;;;;;;7.00;3.20;;;;;;;;;;4197087;28;20351;-68
2021/12/21 05:05:59;;;;;;;5.70;2.70;;;;;;;;;;4201601;28;20295;-68
2021/12/21 05:08:31;;;;;;;6.23;2.80;;;;;;;;;;4206718;28;24089;-68
2021/12/21 05:11:03;;;;;;;6.57;2.57;;;;;;;;;;4214640;28;24305;-67
2021/12/21 05:13:31;;;;;;;9.73;3.00;;;;;;;;;;4212680;28;20256;-66
2021/12/21 05:15:58;;;;;;;5.37;2.17;;;;;;;;;;4227403;28;20298;-67
2021/12/21 05:18:24;;;;;;;4.37;1.90;;;;;;;;;;4200177;28;20687;-68
2021/12/21 05:20:51;;;;;;;6.37;1.60;;;;;;;;;;4184655;28;20260;-69
2021/12/21 05:23:17;;;;;;;3.83;1.87;;;;;;;;;;4210106;28;20242;-68
2021/12/21 05:25:44;;;;;;;2.80;1.57;;;;;;;;;;4203834;28;20235;-68
2021/12/21 05:28:11;;;;;;;5.03;1.60;;;;;;;;;;4210025;28;21236;-67
2021/12/21 05:30:38;;;;;;;5.13;1.93;;;;;;;;;;4214457;28;23395;-69
2021/12/21 05:33:04;;;;;;;5.67;1.80;;;;;;;;;;4191567;28;20232;-68
2021/12/21 05:35:33;;;;;;;4.67;1.70;;;;;;;;;;4204497;28;20434;-68
2021/12/21 05:38:03;;;;;;;6.90;1.83;;;;;;;;;;4209964;28;20237;-67
2021/12/21 05:40:42;;;;;;;2.97;1.73;;;;;;;;;;4204547;28;20240;-67
2021/12/21 05:43:10;;;;;;;4.97;1.80;;;;;;;;;;4184705;28;20414;-67
2021/12/21 05:45:36;;;;;;;4.97;1.80;;;;;;;;;;4212384;28;20277;-67
2021/12/21 05:48:03;;;;;;;3.27;1.67;;;;;;;;;;4203184;28;21978;-68
2021/12/21 05:50:29;;;;;;;4.90;1.73;;;;;;;;;;4214030;28;21859;-68
2021/12/21 05:52:56;;;;;;;4.43;1.30;;;;;;;;;;4214876;28;20282;-65
2021/12/21 05:55:22;;;;;;;3.83;1.53;;;;;;;;;;4178406;28;21337;-67
2021/12/21 05:57:49;;;;;;;3.73;1.70;;;;;;;;;;4188635;28;23170;-68
2021/12/21 06:00:19;;;;;;;6.03;1.60;;;;;;;;;;4182313;28;26289;-67
2021/12/21 06:02:45;;;;;;;6.83;2.40;;;;;;;;;;4187705;28;20234;-69
2021/12/21 06:05:12;;;;;;;5.53;1.53;;;;;;;;;;4185138;28;20357;-68
2021/12/21 06:07:38;;;;;;;2.23;1.40;;;;;;;;;;4182624;28;20233;-69
2021/12/21 06:10:17;;;;;;;10.27;1.90;;;;;;;;;;4187064;28;20234;-71
2021/12/21 06:13:13;;;;;;;10.00;3.87;;;;;;;;;;4186421;28;20677;-68
2021/12/21 06:26:14;;;;;;;6.57;2.10;;;;;;;;;;4180151;28;20248;-73
2021/12/21 06:28:41;;;;;;;7.37;2.57;;;;;;;;;;4215061;28;20409;-73
2021/12/21 06:31:07;;;;;;;12.40;2.57;;;;;;;;;;4209146;28;20975;-71
2021/12/21 06:33:34;;;;;;;9.83;2.70;;;;;;;;;;4216656;28;20279;-74
2021/12/21 06:36:01;;;;;;;6.73;2.53;;;;;;;;;;4191340;28;23803;-74
2021/12/21 06:38:28;;;;;;;5.10;2.10;;;;;;;;;;4183992;28;20226;-74
2021/12/21 06:40:54;;;;;;;7.00;2.40;;;;;;;;;;4194583;28;20805;-72
2021/12/21 06:43:21;;;;;;;8.23;2.27;;;;;;;;;;4185860;28;20238;-72
2021/12/21 06:45:54;;;;;;;7.80;2.80;;;;;;;;;;4183477;28;20233;-75
2021/12/21 06:53:50;;;;;;;6.53;2.47;;;;;;;;;;4196666;28;20249;-74
2021/12/21 06:56:23;;;;;;;10.87;2.63;;;;;;;;;;4236527;28;21911;-73
2021/12/21 06:58:49;;;;;;;10.83;2.83;;;;;;;;;;4210482;28;20283;-73
2021/12/21 07:01:19;;;;;;;8.63;2.70;;;;;;;;;;4208344;28;21843;-76
2021/12/21 07:03:45;;;;;;;7.97;2.40;;;;;;;;;;4207544;28;21092;-75
2021/12/21 07:06:12;;;;;;;7.50;2.43;;;;;;;;;;4223790;28;20229;-74
2021/12/21 07:08:47;;;;;;;7.93;2.67;;;;;;;;;;4209775;28;20229;-73
2021/12/21 07:11:25;;;;;;;6.80;2.60;;;;;;;;;;4211684;28;20235;-75
2021/12/21 07:19:22;;;;;;;8.27;2.70;;;;;;;;;;4190398;28;20463;-72
2021/12/21 07:21:48;;;;;;;7.07;2.83;;;;;;;;;;4206670;28;22648;-72
2021/12/21 07:24:15;;;;;;;5.23;2.50;;;;;;;;;;4204023;28;20377;-72
2021/12/21 07:26:41;;;;;;;4.43;2.03;;;;;;;;;;4226715;28;21305;-74
2021/12/21 07:29:08;;;;;;;9.37;2.27;;;;;;;;;;4226492;28;20235;-74
2021/12/21 07:31:34;;;;;;;7.50;3.20;;;;;;;;;;4195614;28;20248;-72
2021/12/21 07:34:02;;;;;;;7.87;3.00;;;;;;;;;;4193428;28;20230;-73
2021/12/21 07:36:31;;;;;;;9.33;2.63;;;;;;;;;;4212290;28;20420;-74
2021/12/21 07:38:58;;;;;;;7.23;2.80;;;;;;;;;;4208325;28;20237;-72
2021/12/21 07:41:25;;;;;;;8.60;2.80;;;;;;;;;;4190568;28;22802;-72
2021/12/21 07:43:52;;;;;;;6.30;2.57;;;;;;;;;;4198779;28;20240;-71
2021/12/21 07:46:19;;;;;;;7.73;3.10;;;;;;;;;;4197822;28;22423;-71
2021/12/21 07:48:45;;;;;;;6.90;3.00;;;;;;;;;;4209188;28;20233;-73
2021/12/21 07:51:12;;;;;;;12.27;3.60;;;;;;;;;;4199114;28;22201;-72
2021/12/21 07:53:39;;;;;;;7.83;2.67;;;;;;;;;;4196667;28;20236;-71
2021/12/21 07:56:05;;;;;;;15.43;4.50;;;;;;;;;;4205682;28;20423;-72
2021/12/21 07:58:33;;;;;;;10.83;3.77;;;;;;;;;;4217565;28;20975;-71
2021/12/21 08:01:00;;;;;;;6.43;2.73;;;;;;;;;;4209424;28;20239;-71
2021/12/21 08:03:28;;;;;;;12.87;3.00;;;;;;;;;;4198291;28;20475;-73
2021/12/21 08:05:57;;;;;;;9.83;3.13;;;;;;;;;;4193162;28;21270;-72
2021/12/21 08:08:27;;;;;;;7.40;2.90;;;;;;;;;;4200140;28;20287;-72
2021/12/21 08:11:16;;;;;;;7.70;3.20;;;;;;;;;;4202100;28;20305;-71
2021/12/21 08:13:44;;;;;;;8.47;3.33;;;;;;;;;;4196531;28;20231;-71
2021/12/21 08:16:11;;;;;;;6.67;3.17;;;;;;;;;;4203849;28;21733;-71
2021/12/21 08:18:37;;;;;;;6.90;3.30;;;;;;;;;;4203179;28;20816;-74
2021/12/21 08:21:04;;;;;;;14.63;3.67;;;;;;;;;;4206555;28;22992;-73
2021/12/21 08:23:31;;;;;;;10.47;3.73;;;;;;;;;;4207120;28;20240;-72
2021/12/21 08:25:58;;;;;;;13.27;4.03;;;;;;;;;;4204197;28;20264;-73
2021/12/21 08:28:24;;;;;;;9.83;4.23;;;;;;;;;;4214700;28;20401;-71
2021/12/21 08:30:51;;;;;;;12.87;4.40;;;;;;;;;;4202898;28;20362;-74
2021/12/21 08:33:21;;;;;;;17.07;4.40;;;;;;;;;;4211634;28;20394;-72
2021/12/21 08:35:48;;;;;;;12.00;4.57;;;;;;;;;;4213944;28;25303;-73
2021/12/21 08:38:17;;;;;;;28.20;8.47;;;;;;;;;;4214894;28;20248;-72
2021/12/21 08:40:47;;;;;;;18.43;5.57;;;;;;;;;;4213596;28;22060;-73
2021/12/21 08:43:15;;;;;;;11.87;3.80;;;;;;;;;;4244481;28;21702;-74
2021/12/21 08:45:43;;;;;;;12.80;3.43;;;;;;;;;;4233205;28;23493;-73
2021/12/21 08:48:10;;;;;;;12.37;2.33;;;;;;;;;;4254017;28;20654;-75
2021/12/21 08:50:37;;;;;;;16.77;3.20;;;;;;;;;;4267843;28;20302;-74
2021/12/21 08:53:04;;;;;;;19.70;6.47;;;;;;;;;;4227140;28;21916;-75
2021/12/21 08:55:31;;;;;;;20.20;5.30;;;;;;;;;;4225830;28;20242;-76
2021/12/21 08:57:58;;;;;;;19.40;5.13;;;;;;;;;;4240570;28;20264;-72
2021/12/21 09:00:25;;;;;;;18.83;5.00;;;;;;;;;;4311930;28;25211;-72
2021/12/21 09:02:52;;;;;;;10.37;4.53;;;;;;;;;;4286200;28;21741;-73
2021/12/21 09:05:21;;;;;;;20.97;7.97;;;;;;;;;;4318949;28;20274;-74
2021/12/21 09:07:49;;;;;;;27.27;8.80;;;;;;;;;;4325162;28;20994;-75
2021/12/21 09:10:18;;;;;;;31.17;10.47;;;;;;;;;;4319199;28;20230;-70
2021/12/21 09:12:45;;;;;;;24.77;9.57;;;;;;;;;;4286196;28;20310;-76
2021/12/21 09:15:13;;;;;;;28.30;9.67;;;;;;;;;;4327505;28;21235;-73
2021/12/21 09:17:42;;;;;;;38.10;10.67;;;;;;;;;;4297031;28;20232;-74
2021/12/21 09:20:13;;;;;;;32.00;9.37;;;;;;;;;;4371619;28;20229;-72
2021/12/21 09:22:45;;;;;;;20.00;8.40;;;;;;;;;;4319376;28;20229;-74
2021/12/21 09:25:14;;;;;;;26.80;7.50;;;;;;;;;;4332854;28;20283;-74
2021/12/21 09:27:41;;;;;;;17.10;6.47;;;;;;;;;;4374804;28;20228;-73
2021/12/21 09:30:10;;;;;;;18.40;6.97;;;;;;;;;;4315929;28;20348;-76
2021/12/21 09:32:37;;;;;;;19.53;8.80;;;;;;;;;;4291003;28;20250;-73
2021/12/21 09:35:04;;;;;;;12.97;5.73;;;;;;;;;;4282996;28;20672;-74
2021/12/21 09:37:31;;;;;;;11.83;5.13;;;;;;;;;;4236778;28;20240;-72
2021/12/21 09:39:59;;;;;;;22.97;4.40;;;;;;;;;;4230179;28;20233;-71
2021/12/21 09:42:29;;;;;;;14.30;4.03;;;;;;;;;;4211063;28;21214;-71
2021/12/21 09:44:56;;;;;;;11.40;4.27;;;;;;;;;;4219313;28;20240;-71
2021/12/21 09:47:23;;;;;;;14.10;4.47;;;;;;;;;;4250298;28;20241;-74
2021/12/21 09:49:49;;;;;;;7.77;3.40;;;;;;;;;;4239132;28;21441;-70
2021/12/21 09:52:18;;;;;;;9.30;3.13;;;;;;;;;;4229875;28;20246;-69
2021/12/21 09:54:45;;;;;;;10.73;3.50;;;;;;;;;;4200456;28;20237;-70
2021/12/21 09:57:16;;;;;;;5.87;2.60;;;;;;;;;;4239545;28;22572;-71
2021/12/21 09:59:46;;;;;;;6.53;2.57;;;;;;;;;;4203174;28;20228;-74
2021/12/21 10:02:13;;;;;;;6.90;3.40;;;;;;;;;;4222751;28;25562;-72
2021/12/21 10:04:46;;;;;;;9.03;4.53;;;;;;;;;;4227524;28;20239;-72
2021/12/21 10:07:14;;;;;;;14.33;5.93;;;;;;;;;;4247049;28;20237;-73
2021/12/21 10:09:43;;;;;;;13.63;5.90;;;;;;;;;;4271102;28;21252;-74
2021/12/21 10:12:14;;;;;;;14.10;5.97;;;;;;;;;;4223767;28;20265;-73
2021/12/21 10:14:41;;;;;;;13.33;5.20;;;;;;;;;;4223894;28;20233;-75
2021/12/21 10:17:08;;;;;;;12.27;4.97;;;;;;;;;;4221353;28;20240;-75
2021/12/21 10:19:36;;;;;;;15.90;4.77;;;;;;;;;;4208950;28;20647;-78
2021/12/21 10:22:09;;;;;;;12.00;4.40;;;;;;;;;;4221762;28;22237;-76
2021/12/21 10:24:43;;;;;;;13.43;5.07;;;;;;;;;;4204487;28;20690;-74
2021/12/21 10:27:10;;;;;;;12.00;4.63;;;;;;;;;;4283864;28;20501;-75
2021/12/21 10:29:40;;;;;;;7.00;3.33;;;;;;;;;;4238953;28;20246;-78
2021/12/21 10:32:15;;;;;;;9.57;4.10;;;;;;;;;;4225267;28;20251;-80
2021/12/21 10:34:49;;;;;;;9.80;4.10;;;;;;;;;;4218218;28;20287;-76
2021/12/21 10:37:27;;;;;;;7.53;3.23;;;;;;;;;;4228939;28;20416;-77
2021/12/21 10:40:12;;;;;;;10.67;3.23;;;;;;;;;;4199500;28;22726;-77
2021/12/21 10:42:46;;;;;;;5.47;2.63;;;;;;;;;;4221468;28;21658;-78
2021/12/21 10:45:13;;;;;;;8.70;2.90;;;;;;;;;;4252835;28;21257;-75
2021/12/21 10:47:42;;;;;;;10.83;4.20;;;;;;;;;;4201736;28;20221;-77
2021/12/21 10:50:09;;;;;;;10.53;4.53;;;;;;;;;;4200470;28;20259;-77
2021/12/21 10:52:36;;;;;;;9.93;3.87;;;;;;;;;;4247241;28;20245;-75
2021/12/21 10:55:04;;;;;;;11.17;3.93;;;;;;;;;;4248188;28;20505;-79
2021/12/21 10:57:32;;;;;;;9.47;3.63;;;;;;;;;;4187724;28;20879;-78
2021/12/21 11:00:01;;;;;;;11.77;3.53;;;;;;;;;;4210964;28;20418;-75
2021/12/21 11:02:30;;;;;;;14.90;5.37;;;;;;;;;;4202348;28;20277;-76
2021/12/21 11:05:04;;;;;;;21.40;6.93;;;;;;;;;;4236260;28;20235;-74
2021/12/21 11:07:46;;;;;;;11.50;4.40;;;;;;;;;;4212462;28;20249;-77
2021/12/21 11:10:26;;;;;;;13.97;5.43;;;;;;;;;;4225615;28;20255;-77
2021/12/21 11:13:11;;;;;;;10.03;4.20;;;;;;;;;;4217436;28;20284;-76
2021/12/21 11:15:39;;;;;;;9.93;4.03;;;;;;;;;;4199326;28;20320;-75
2021/12/21 11:18:12;;;;;;;9.93;3.93;;;;;;;;;;4202959;28;20315;-74
2021/12/21 11:20:40;;;;;;;10.67;3.73;;;;;;;;;;4205588;28;20356;-72
2021/12/21 11:23:07;;;;;;;11.80;3.90;;;;;;;;;;4222073;28;20224;-74
2021/12/21 11:25:34;;;;;;;14.03;4.03;;;;;;;;;;4233091;28;23053;-74
2021/12/21 11:28:02;;;;;;;16.43;4.53;;;;;;;;;;4205577;28;20233;-76
2021/12/21 11:30:29;;;;;;;11.47;4.47;;;;;;;;;;4202056;28;20323;-73
2021/12/21 11:32:57;;;;;;;14.77;4.60;;;;;;;;;;4229211;28;20248;-80
2021/12/21 11:37:53;;;;;;;13.53;4.53;;;;;;;;;;4212697;28;20244;-75
2021/12/21 11:40:21;;;;;;;9.37;3.93;;;;;;;;;;4238829;28;21226;-71
2021/12/21 11:42:51;;;;;;;18.10;4.67;;;;;;;;;;4249213;28;20238;-72
2021/12/21 11:45:29;;;;;;;15.17;3.93;;;;;;;;;;4235198;28;22219;-76
2021/12/21 11:48:00;;;;;;;16.60;4.37;;;;;;;;;;4296916;28;20889;-76
2021/12/21 11:50:27;;;;;;;12.13;4.27;;;;;;;;;;4286483;28;20235;-72
2021/12/21 11:52:55;;;;;;;14.37;4.90;;;;;;;;;;4225159;28;21127;-78
2021/12/21 11:55:23;;;;;;;12.90;4.90;;;;;;;;;;4211058;28;21649;-74
2021/12/21 11:57:54;;;;;;;13.17;4.33;;;;;;;;;;4193774;28;21825;-66
2021/12/21 12:00:29;;;;;;;12.57;4.80;;;;;;;;;;4209993;28;20245;-71
2021/12/21 12:03:07;;;;;;;13.00;5.63;;;;;;;;;;4221115;28;20245;-72
2021/12/21 12:05:34;;;;;;;14.47;4.80;;;;;;;;;;4209345;28;20237;-71
2021/12/21 12:08:03;;;;;;;15.53;5.30;;;;;;;;;;4225735;28;21268;-69
2021/12/21 12:10:31;;;;;;;16.60;5.97;;;;;;;;;;4296640;28;20322;-68
2021/12/21 12:13:08;;;;;;;24.97;7.33;;;;;;;;;;4291907;28;20608;-68
2021/12/21 12:15:46;;;;;;;16.73;5.77;;;;;;;;;;4258902;28;20301;-70
2021/12/21 12:18:23;;;;;;;17.33;6.23;;;;;;;;;;4270397;28;20232;-69
2021/12/21 12:20:49;;;;;;;16.37;6.03;;;;;;;;;;4195433;28;20249;-68
2021/12/21 12:23:19;;;;;;;22.93;7.70;;;;;;;;;;4210995;28;20233;-70
2021/12/21 12:25:54;;;;;;;24.17;8.60;;;;;;;;;;4193200;28;21818;-70
2021/12/21 12:28:25;;;;;;;22.60;9.30;;;;;;;;;;4211752;28;20305;-69
2021/12/21 12:30:52;;;;;;;17.00;7.07;;;;;;;;;;4196392;28;20233;-67
2021/12/21 12:33:19;;;;;;;21.63;8.07;;;;;;;;;;4182897;28;21529;-65
2021/12/21 12:35:45;;;;;;;24.73;8.57;;;;;;;;;;4184445;28;23340;-67
2021/12/21 12:38:12;;;;;;;19.07;7.57;;;;;;;;;;4200854;28;20313;-68
2021/12/21 12:40:41;;;;;;;18.03;7.93;;;;;;;;;;4193394;28;20969;-68
2021/12/21 12:43:14;;;;;;;25.47;9.60;;;;;;;;;;4227472;28;22191;-68
2021/12/21 12:45:51;;;;;;;28.00;9.63;;;;;;;;;;4197131;28;21282;-66
2021/12/21 12:48:17;;;;;;;21.30;8.67;;;;;;;;;;4194424;28;20238;-68
2021/12/21 12:50:45;;;;;;;26.40;9.30;;;;;;;;;;4191620;28;20249;-69
2021/12/21 12:53:11;;;;;;;22.33;8.00;;;;;;;;;;4195820;28;20342;-70
2021/12/21 12:55:43;;;;;;;19.30;7.50;;;;;;;;;;4203581;28;20689;-69
2021/12/21 12:58:32;;;;;;;20.00;8.80;;;;;;;;;;4203249;28;20415;-69
2021/12/21 13:01:04;;;;;;;22.70;8.23;;;;;;;;;;4216005;28;21366;-71
2021/12/21 13:03:33;;;;;;;22.83;7.83;;;;;;;;;;4191932;28;20237;-69
2021/12/21 13:06:07;;;;;;;21.23;7.90;;;;;;;;;;4207889;28;20247;-70
2021/12/21 13:08:33;;;;;;;19.37;8.40;;;;;;;;;;4212467;28;20291;-70
2021/12/21 13:11:01;;;;;;;18.70;8.00;;;;;;;;;;4209718;28;20322;-70
2021/12/21 13:13:34;;;;;;;24.20;8.37;;;;;;;;;;4205979;28;20332;-69
2021/12/21 13:16:06;;;;;;;16.17;6.97;;;;;;;;;;4216246;28;20654;-71
2021/12/21 13:18:44;;;;;;;21.70;7.03;;;;;;;;;;4201726;28;20301;-71
2021/12/21 13:21:21;;;;;;;17.23;7.00;;;;;;;;;;4206766;28;20297;-70
2021/12/21 13:23:51;;;;;;;17.40;6.93;;;;;;;;;;4197288;28;22837;-69
2021/12/21 13:26:18;;;;;;;18.17;7.00;;;;;;;;;;4199820;28;20233;-69
2021/12/21 13:28:49;;;;;;;20.07;7.80;;;;;;;;;;4206140;28;20236;-70
2021/12/21 13:31:17;;;;;;;18.23;8.03;;;;;;;;;;4194699;28;20233;-73
2021/12/21 13:33:48;;;;;;;17.83;7.33;;;;;;;;;;4196751;28;20304;-72
2021/12/21 13:36:15;;;;;;;19.73;7.43;;;;;;;;;;4201218;28;20260;-69
2021/12/21 13:38:41;;;;;;;28.57;8.97;;;;;;;;;;4205252;28;21080;-72
2021/12/21 13:41:09;;;;;;;30.07;10.60;;;;;;;;;;4216703;28;20353;-70
2021/12/21 13:43:37;;;;;;;30.03;11.43;;;;;;;;;;4195267;28;20248;-71
2021/12/21 13:46:05;;;;;;;34.33;11.47;;;;;;;;;;4199453;28;21784;-70
2021/12/21 13:48:33;;;;;;;29.97;11.30;;;;;;;;;;4190340;28;22529;-69
2021/12/21 13:51:09;;;;;;;23.00;9.67;;;;;;;;;;4190284;28;20278;-69
2021/12/21 13:54:02;;;;;;;26.33;10.63;;;;;;;;;;4185434;28;22392;-72
2021/12/21 13:56:30;;;;;;;27.40;10.83;;;;;;;;;;4213191;28;25564;-71
2021/12/21 13:58:57;;;;;;;27.73;11.37;;;;;;;;;;4204521;28;20233;-70
2021/12/21 14:01:28;;;;;;;23.50;9.63;;;;;;;;;;4188713;28;20233;-71
2021/12/21 14:04:00;;;;;;;25.17;10.53;;;;;;;;;;4183055;28;20395;-70
2021/12/21 14:06:27;;;;;;;22.80;9.60;;;;;;;;;;4178751;28;20239;-71
2021/12/21 14:08:58;;;;;;;25.00;10.33;;;;;;;;;;4187642;28;20893;-74
2021/12/21 14:11:27;;;;;;;26.70;10.13;;;;;;;;;;4218967;28;20298;-71
2021/12/21 14:13:54;;;;;;;26.20;10.63;;;;;;;;;;4203663;28;20313;-72
2021/12/21 14:16:22;;;;;;;36.87;13.47;;;;;;;;;;4214690;28;23686;-71
2021/12/21 14:18:49;;;;;;;25.63;10.60;;;;;;;;;;4193280;28;20990;-71
2021/12/21 14:21:23;;;;;;;30.03;10.97;;;;;;;;;;4193966;28;20317;-72
2021/12/21 14:23:52;;;;;;;27.17;10.80;;;;;;;;;;4211669;28;21514;-70
2021/12/21 14:26:21;;;;;;;33.67;11.50;;;;;;;;;;4205002;28;22258;-71
2021/12/21 14:28:49;;;;;;;33.33;11.97;;;;;;;;;;4193130;28;20246;-71
2021/12/21 14:31:21;;;;;;;35.13;13.37;;;;;;;;;;4195499;28;22389;-71
2021/12/21 14:33:49;;;;;;;35.53;13.83;;;;;;;;;;4212515;28;20247;-69
2021/12/21 14:36:19;;;;;;;35.87;13.40;;;;;;;;;;4202412;28;20233;-71
2021/12/21 14:38:52;;;;;;;42.33;14.73;;;;;;;;;;4205600;28;21819;-73
2021/12/21 14:41:20;;;;;;;35.43;13.97;;;;;;;;;;4200316;28;20237;-76
2021/12/21 14:43:46;;;;;;;40.07;14.87;;;;;;;;;;4188312;28;21375;-72
2021/12/21 14:46:19;;;;;;;43.50;15.47;;;;;;;;;;4184926;28;20301;-74
2021/12/21 14:48:55;;;;;;;44.23;16.40;;;;;;;;;;4202290;28;20238;-72
2021/12/21 14:51:22;;;;;;;45.93;17.13;;;;;;;;;;4222280;28;20269;-69
2021/12/21 14:54:07;;;;;;;54.80;18.90;;;;;;;;;;4198198;28;20299;-71
2021/12/21 14:56:37;;;;;;;56.50;19.57;;;;;;;;;;4197210;28;20242;-67
2021/12/21 14:59:06;;;;;;;53.53;19.47;;;;;;;;;;4200366;28;20226;-70
2021/12/21 15:01:38;;;;;;;59.00;20.30;;;;;;;;;;4206295;28;20303;-68
2021/12/21 15:04:11;;;;;;;50.80;19.57;;;;;;;;;;4216265;28;20653;-69
2021/12/21 15:06:38;;;;;;;49.33;18.07;;;;;;;;;;4213033;28;21374;-72
2021/12/21 15:09:04;;;;;;;45.60;18.20;;;;;;;;;;4194737;28;20395;-72
2021/12/21 15:11:34;;;;;;;45.40;17.67;;;;;;;;;;4193474;28;20224;-67
2021/12/21 15:14:00;;;;;;;41.93;17.90;;;;;;;;;;4226241;28;24817;-68
2021/12/21 15:16:28;;;;;;;44.67;16.00;;;;;;;;;;4225175;28;20233;-73
2021/12/21 15:18:54;;;;;;;46.57;16.77;;;;;;;;;;4207111;28;20235;-73
2021/12/21 15:21:21;;;;;;;39.93;15.40;;;;;;;;;;4197997;28;20243;-69
2021/12/21 15:23:47;;;;;;;41.87;16.07;;;;;;;;;;4206779;28;22291;-70
2021/12/21 15:26:13;;;;;;;35.77;15.47;;;;;;;;;;4203231;28;20243;-73
2021/12/21 15:28:40;;;;;;;41.17;15.43;;;;;;;;;;4187476;28;20248;-71
2021/12/21 15:31:07;;;;;;;33.70;14.47;;;;;;;;;;4201234;28;20228;-69
2021/12/21 15:33:33;;;;;;;51.13;17.77;;;;;;;;;;4206238;28;20259;-70
2021/12/21 15:36:00;;;;;;;48.40;18.27;;;;;;;;;;4202210;28;20423;-70